Time,TemperatureF,DewpointF,PressureIn,WindDirection,WindDirectionDegrees,WindSpeedMPH,WindSpeedGustMPH,Humidity,HourlyPrecipIn,Conditions,Clouds,dailyrainin,SoftwareType,DateUTC
2015-06-02 02:15:00,64.0,59.1,29.76,South,180,6.0,10.0,84,0.00,,,0.00,VWS V13.01,2015-06-02 08:15:00,
2015-06-02 02:20:00,63.0,58.1,29.76,SSE,157,6.0,9.0,84,0.00,,,0.00,VWS V13.01,2015-06-02 08:20:00,
2015-06-02 02:25:00,63.0,58.1,29.76,SSE,157,0.0,6.0,84,0.00,,,0.00,VWS V13.01,2015-06-02 08:25:00,
2015-06-02 02:30:00,63.0,58.1,29.76,SE,135,0.0,0.0,84,0.00,,,0.00,VWS V13.01,2015-06-02 08:30:00,
2015-06-02 02:35:00,63.0,58.4,29.77,East,90,0.0,0.0,85,0.00,,,0.00,VWS V13.01,2015-06-02 08:35:00,
2015-06-02 02:40:00,61.0,56.5,29.77,NE,45,6.0,9.0,85,0.00,,,0.00,VWS V13.01,2015-06-02 08:40:00,
2015-06-02 02:45:00,61.0,56.1,29.77,NE,45,3.0,4.0,84,0.00,,,0.00,VWS V13.01,2015-06-02 08:45:00,
2015-06-02 02:50:00,61.0,56.5,29.77,NE,45,0.0,0.0,85,0.00,,,0.00,VWS V13.01,2015-06-02 08:50:00,
2015-06-02 02:55:00,62.0,57.5,29.78,East,90,0.0,0.0,85,0.00,,,0.00,VWS V13.01,2015-06-02 08:55:00,
2015-06-02 03:00:00,63.0,58.4,29.78,East,90,0.0,0.0,85,0.00,,,0.00,VWS V13.01,2015-06-02 09:00:00,
2015-06-02 03:05:00,62.0,57.5,29.78,East,90,0.0,0.0,85,0.00,,,0.00,VWS V13.01,2015-06-02 09:05:00,
2015-06-02 03:10:00,61.0,56.5,29.78,SSE,157,0.0,0.0,85,0.00,,,0.00,VWS V13.01,2015-06-02 09:10:00,
2015-06-02 03:15:00,59.0,48.9,29.80,NW,315,4.0,5.0,69,0.00,,,0.00,VWS V13.01,2015-06-02 09:15:00,
2015-06-02 03:20:00,57.0,35.3,29.80,North,360,0.0,0.0,44,0.00,,,0.00,VWS V13.01,2015-06-02 09:20:00,
2015-06-02 03:25:00,57.0,24.2,29.82,NNW,337,5.0,10.0,28,0.00,,,0.00,VWS V13.01,2015-06-02 09:25:00,
2015-06-02 03:30:00,58.0,32.6,29.82,NW,315,0.0,11.0,38,0.00,,,0.00,VWS V13.01,2015-06-02 09:30:00,
2015-06-02 03:35:00,58.0,26.0,29.84,ESE,112,0.0,0.0,29,0.00,,,0.00,VWS V13.01,2015-06-02 09:35:00,
2015-06-02 03:40:00,58.0,27.6,29.84,ESE,112,2.0,8.0,31,0.00,,,0.00,VWS V13.01,2015-06-02 09:40:00,
2015-06-02 03:45:00,58.0,21.4,29.83,South,180,0.0,0.0,24,0.00,,,0.00,VWS V13.01,2015-06-02 09:45:00,
2015-06-02 03:50:00,58.0,25.1,29.83,NNW,337,0.0,0.0,28,0.00,,,0.00,VWS V13.01,2015-06-02 09:50:00,
2015-06-02 03:55:00,58.0,32.6,29.82,SE,135,0.0,6.0,38,0.00,,,0.00,VWS V13.01,2015-06-02 09:55:00,
2015-06-02 04:00:00,58.0,32.6,29.82,SE,135,0.0,7.0,38,0.00,,,0.00,VWS V13.01,2015-06-02 10:00:00,
2015-06-02 04:05:00,60.0,44.7,29.80,ESE,112,0.0,0.0,57,0.00,,,0.00,VWS V13.01,2015-06-02 10:05:00,
2015-06-02 04:11:00,61.0,51.5,29.80,SSE,157,0.0,0.0,71,0.00,,,0.00,VWS V13.01,2015-06-02 10:11:00,
2015-06-02 04:16:00,61.0,53.8,29.77,SE,135,2.0,8.0,77,0.00,,,0.00,VWS V13.01,2015-06-02 10:16:00,
2015-06-02 04:21:00,62.0,56.5,29.77,ESE,112,5.0,5.0,82,0.00,,,0.00,VWS V13.01,2015-06-02 10:21:00,
2015-06-02 04:26:00,63.0,57.4,29.75,ESE,112,3.0,7.0,82,0.00,,,0.00,VWS V13.01,2015-06-02 10:26:00,
2015-06-02 04:31:00,64.0,58.1,29.75,SSE,157,0.0,7.0,81,0.00,,,0.00,VWS V13.01,2015-06-02 10:31:00,
2015-06-02 04:36:00,63.0,58.1,29.75,SW,225,0.0,6.0,84,0.00,,,0.00,VWS V13.01,2015-06-02 10:36:00,
2015-06-02 04:41:00,62.0,57.1,29.75,ENE,67,0.0,0.0,84,0.00,,,0.00,VWS V13.01,2015-06-02 10:41:00,
2015-06-02 04:46:00,62.0,57.1,29.76,ENE,67,0.0,0.0,84,0.00,,,0.00,VWS V13.01,2015-06-02 10:46:00,
2015-06-02 04:51:00,62.0,56.8,29.76,NNW,337,12.0,12.0,83,0.00,,,0.00,VWS V13.01,2015-06-02 10:51:00,
2015-06-02 04:56:00,60.0,47.8,29.80,NNW,337,2.0,7.0,64,0.00,,,0.00,VWS V13.01,2015-06-02 10:56:00,
2015-06-02 05:01:00,59.0,44.7,29.82,NW,315,0.0,5.0,59,0.00,,,0.00,VWS V13.01,2015-06-02 11:01:00,
2015-06-02 05:06:00,59.0,40.9,29.82,North,360,0.0,0.0,51,0.00,,,0.00,VWS V13.01,2015-06-02 11:06:00,
2015-06-02 05:11:00,58.0,24.2,29.82,WSW,247,0.0,0.0,27,0.00,,,0.00,VWS V13.01,2015-06-02 11:11:00,
2015-06-02 05:16:00,59.0,36.0,29.82,NNW,337,0.0,0.0,42,0.00,,,0.00,VWS V13.01,2015-06-02 11:16:00,
2015-06-02 05:21:00,59.0,43.3,29.81,NNE,22,3.0,10.0,56,0.00,,,0.00,VWS V13.01,2015-06-02 11:21:00,
2015-06-02 05:26:00,58.0,33.2,29.81,SW,225,0.0,0.0,39,0.00,,,0.00,VWS V13.01,2015-06-02 11:26:00,
2015-06-02 05:31:00,59.0,48.1,29.81,NNW,337,0.0,0.0,67,0.00,,,0.00,VWS V13.01,2015-06-02 11:31:00,
2015-06-02 05:36:00,60.0,51.3,29.81,NNW,337,0.0,0.0,73,0.00,,,0.00,VWS V13.01,2015-06-02 11:36:00,
2015-06-02 05:41:00,59.0,48.1,29.81,WNW,292,0.0,0.0,67,0.00,,,0.00,VWS V13.01,2015-06-02 11:41:00,
2015-06-02 05:46:00,59.0,48.1,29.81,North,360,7.0,9.0,67,0.00,,,0.00,VWS V13.01,2015-06-02 11:46:00,
2015-06-02 05:51:00,60.0,50.6,29.80,North,360,9.0,12.0,71,0.00,,,0.00,VWS V13.01,2015-06-02 11:51:00,
2015-06-02 05:56:00,59.0,43.8,29.80,NNW,337,13.0,13.0,57,0.00,,,0.00,VWS V13.01,2015-06-02 11:56:00,
2015-06-02 06:01:00,59.0,41.4,29.81,North,360,8.0,10.0,52,0.00,,,0.00,VWS V13.01,2015-06-02 12:01:00,
2015-06-02 06:06:00,59.0,26.8,29.81,NNW,337,12.0,15.0,29,0.00,,,0.00,VWS V13.01,2015-06-02 12:06:00,
2015-06-02 06:11:00,59.0,34.1,29.82,NW,315,10.0,10.0,39,0.00,,,0.00,VWS V13.01,2015-06-02 12:11:00,
2015-06-02 06:16:00,60.0,45.2,29.82,NNW,337,10.0,14.0,58,0.00,,,0.00,VWS V13.01,2015-06-02 12:16:00,
2015-06-02 06:22:00,62.0,54.0,29.80,NNW,337,10.0,13.0,75,0.00,,,0.00,VWS V13.01,2015-06-02 12:22:00,
2015-06-02 06:27:00,63.0,56.7,29.80,NNW,337,13.0,14.0,80,0.00,,,0.00,VWS V13.01,2015-06-02 12:27:00,
2015-06-02 06:32:00,63.0,56.7,29.80,NNW,337,7.0,12.0,80,0.00,,,0.00,VWS V13.01,2015-06-02 12:32:00,
2015-06-02 06:37:00,63.0,56.7,29.80,NNW,337,9.0,11.0,80,0.00,,,0.00,VWS V13.01,2015-06-02 12:37:00,
2015-06-02 06:42:00,63.0,56.7,29.80,NW,315,11.0,13.0,80,0.00,,,0.00,VWS V13.01,2015-06-02 12:42:00,
2015-06-02 06:47:00,63.0,56.4,29.80,NW,315,12.0,14.0,79,0.00,,,0.00,VWS V13.01,2015-06-02 12:47:00,
2015-06-02 06:52:00,64.0,58.1,29.79,NNW,337,16.0,16.0,81,0.00,,,0.00,VWS V13.01,2015-06-02 12:52:00,
2015-06-02 07:02:00,65.0,59.7,29.78,NNW,337,15.0,17.0,83,0.00,,,0.00,VWS V13.01,2015-06-02 13:02:00,
2015-06-02 07:07:00,64.0,58.7,29.78,NNW,337,12.0,16.0,83,0.00,,,0.00,VWS V13.01,2015-06-02 13:07:00,
2015-06-02 07:12:00,65.0,59.7,29.78,NNW,337,13.0,18.0,83,0.00,,,0.00,VWS V13.01,2015-06-02 13:12:00,
2015-06-02 07:17:00,66.0,60.7,29.78,NNW,337,14.0,16.0,83,0.00,,,0.00,VWS V13.01,2015-06-02 13:17:00,
2015-06-02 07:22:00,66.0,60.3,29.77,NW,315,16.0,19.0,82,0.00,,,0.00,VWS V13.01,2015-06-02 13:22:00,
2015-06-02 07:27:00,67.0,61.3,29.77,NNW,337,14.0,17.0,82,0.00,,,0.00,VWS V13.01,2015-06-02 13:27:00,
2015-06-02 07:32:00,67.0,60.3,29.76,NNW,337,12.0,17.0,79,0.00,,,0.00,VWS V13.01,2015-06-02 13:32:00,
2015-06-02 07:37:00,68.0,61.2,29.76,NW,315,16.0,17.0,79,0.00,,,0.00,VWS V13.01,2015-06-02 13:37:00,
2015-06-02 07:42:00,68.0,61.6,29.76,NW,315,13.0,20.0,80,0.00,,,0.00,VWS V13.01,2015-06-02 13:42:00,
2015-06-02 07:47:00,68.0,61.6,29.76,NNW,337,17.0,20.0,80,0.00,,,0.00,VWS V13.01,2015-06-02 13:47:00,
2015-06-02 07:52:00,69.0,61.5,29.75,NNW,337,18.0,20.0,77,0.00,,,0.00,VWS V13.01,2015-06-02 13:52:00,
2015-06-02 07:57:00,69.0,61.9,29.75,NNW,337,15.0,22.0,78,0.00,,,0.00,VWS V13.01,2015-06-02 13:57:00,
2015-06-02 08:02:00,68.0,60.9,29.75,NW,315,16.0,23.0,78,0.00,,,0.00,VWS V13.01,2015-06-02 14:02:00,
2015-06-02 08:07:00,69.0,61.5,29.75,NW,315,20.0,23.0,77,0.00,,,0.00,VWS V13.01,2015-06-02 14:07:00,
2015-06-02 08:12:00,69.0,61.9,29.74,WNW,292,13.0,25.0,78,0.00,,,0.00,VWS V13.01,2015-06-02 14:12:00,
2015-06-02 08:17:00,69.0,62.2,29.74,NW,315,9.0,21.0,79,0.00,,,0.00,VWS V13.01,2015-06-02 14:17:00,
2015-06-02 08:22:00,69.0,61.9,29.74,WNW,292,15.0,20.0,78,0.00,,,0.00,VWS V13.01,2015-06-02 14:22:00,
2015-06-02 08:27:00,70.0,61.7,29.74,NW,315,18.0,19.0,75,0.00,,,0.00,VWS V13.01,2015-06-02 14:27:00,
2015-06-02 08:32:00,70.0,61.7,29.74,NW,315,13.0,21.0,75,0.00,,,0.00,VWS V13.01,2015-06-02 14:32:00,
2015-06-02 08:37:00,70.0,62.1,29.74,NW,315,13.0,19.0,76,0.00,,,0.00,VWS V13.01,2015-06-02 14:37:00,
2015-06-02 08:42:00,71.0,62.3,29.73,NW,315,9.0,19.0,74,0.00,,,0.00,VWS V13.01,2015-06-02 14:42:00,
2015-06-02 08:47:00,71.0,62.3,29.73,NW,315,12.0,17.0,74,0.00,,,0.00,VWS V13.01,2015-06-02 14:47:00,
2015-06-02 08:52:00,71.0,61.5,29.73,NW,315,8.0,17.0,72,0.00,,,0.00,VWS V13.01,2015-06-02 14:52:00,
2015-06-02 08:58:00,72.0,62.9,29.73,NNW,337,10.0,12.0,73,0.00,,,0.00,VWS V13.01,2015-06-02 14:58:00,
2015-06-02 09:03:00,72.0,62.1,29.72,NNW,337,8.0,12.0,71,0.00,,,0.00,VWS V13.01,2015-06-02 15:03:00,
2015-06-02 09:08:00,72.0,61.7,29.72,NW,315,7.0,10.0,70,0.00,,,0.00,VWS V13.01,2015-06-02 15:08:00,
2015-06-02 09:13:00,73.0,62.7,29.72,NNW,337,0.0,4.0,70,0.00,,,0.00,VWS V13.01,2015-06-02 15:13:00,
2015-06-02 09:18:00,74.0,64.0,29.72,NNW,337,0.0,0.0,71,0.00,,,0.00,VWS V13.01,2015-06-02 15:18:00,
2015-06-02 09:23:00,75.0,63.7,29.71,NW,315,0.0,0.0,68,0.00,,,0.00,VWS V13.01,2015-06-02 15:23:00,
2015-06-02 09:28:00,75.0,62.9,29.71,NNW,337,0.0,0.0,66,0.00,,,0.00,VWS V13.01,2015-06-02 15:28:00,
2015-06-02 09:33:00,76.0,63.0,29.70,NE,45,0.0,0.0,64,0.00,,,0.00,VWS V13.01,2015-06-02 15:33:00,
2015-06-02 09:38:00,77.0,65.2,29.70,North,360,0.0,0.0,67,0.00,,,0.00,VWS V13.01,2015-06-02 15:38:00,
2015-06-02 09:43:00,76.0,66.3,29.70,NNE,22,0.0,0.0,72,0.00,,,0.00,VWS V13.01,2015-06-02 15:43:00,
2015-06-02 09:48:00,75.0,65.0,29.70,North,360,0.0,0.0,71,0.00,,,0.00,VWS V13.01,2015-06-02 15:48:00,
2015-06-02 09:53:00,74.0,65.6,29.70,ENE,67,0.0,0.0,75,0.00,,,0.00,VWS V13.01,2015-06-02 15:53:00,
2015-06-02 09:58:00,74.0,64.0,29.70,NNE,22,0.0,0.0,71,0.00,,,0.00,VWS V13.01,2015-06-02 15:58:00,
2015-06-02 10:03:00,75.0,64.6,29.71,North,360,0.0,0.0,70,0.00,,,0.00,VWS V13.01,2015-06-02 16:03:00,
2015-06-02 10:08:00,76.0,65.1,29.71,NNE,22,0.0,0.0,69,0.00,,,0.00,VWS V13.01,2015-06-02 16:08:00,
2015-06-02 10:13:00,73.0,64.6,29.71,ENE,67,0.0,0.0,75,0.00,,,0.00,VWS V13.01,2015-06-02 16:13:00,
2015-06-02 10:18:00,75.0,64.6,29.71,NNE,22,0.0,0.0,70,0.00,,,0.00,VWS V13.01,2015-06-02 16:18:00,
2015-06-02 10:23:00,76.0,65.1,29.71,North,360,0.0,0.0,69,0.00,,,0.00,VWS V13.01,2015-06-02 16:23:00,
2015-06-02 10:28:00,76.0,65.1,29.71,NE,45,0.0,0.0,69,0.00,,,0.00,VWS V13.01,2015-06-02 16:28:00,
2015-06-02 10:33:00,76.0,64.3,29.72,NNE,22,0.0,0.0,67,0.00,,,0.00,VWS V13.01,2015-06-02 16:33:00,
2015-06-02 10:38:00,77.0,66.1,29.72,NNW,337,0.0,0.0,69,0.00,,,0.00,VWS V13.01,2015-06-02 16:38:00,
2015-06-02 10:43:00,78.0,65.7,29.71,North,360,0.0,0.0,66,0.00,,,0.00,VWS V13.01,2015-06-02 16:43:00,
2015-06-02 10:48:00,78.0,65.3,29.71,North,360,0.0,0.0,65,0.00,,,0.00,VWS V13.01,2015-06-02 16:48:00,
2015-06-02 10:53:00,78.0,65.7,29.71,North,360,0.0,0.0,66,0.00,,,0.00,VWS V13.01,2015-06-02 16:53:00,
2015-06-02 10:58:00,77.0,64.8,29.71,NNE,22,0.0,0.0,66,0.00,,,0.00,VWS V13.01,2015-06-02 16:58:00,
2015-06-02 11:03:00,77.0,65.6,29.71,North,360,0.0,0.0,68,0.00,,,0.00,VWS V13.01,2015-06-02 17:03:00,
2015-06-02 11:08:00,77.0,66.5,29.71,North,360,0.0,0.0,70,0.00,,,0.00,VWS V13.01,2015-06-02 17:08:00,
2015-06-02 11:13:00,77.0,66.9,29.71,North,360,0.0,0.0,71,0.00,,,0.00,VWS V13.01,2015-06-02 17:13:00,
2015-06-02 11:18:00,76.0,65.9,29.71,NNE,22,0.0,0.0,71,0.00,,,0.00,VWS V13.01,2015-06-02 17:18:00,
2015-06-02 11:23:00,77.0,66.9,29.72,North,360,0.0,0.0,71,0.00,,,0.00,VWS V13.01,2015-06-02 17:23:00,
2015-06-02 11:28:00,77.0,66.5,29.72,NNE,22,0.0,0.0,70,0.00,,,0.00,VWS V13.01,2015-06-02 17:28:00,
2015-06-02 11:33:00,76.0,65.9,29.72,NNE,22,0.0,0.0,71,0.00,,,0.00,VWS V13.01,2015-06-02 17:33:00,
2015-06-02 11:38:00,76.0,65.9,29.72,North,360,0.0,0.0,71,0.00,,,0.00,VWS V13.01,2015-06-02 17:38:00,
2015-06-02 11:43:00,75.0,64.6,29.73,NNW,337,0.0,0.0,70,0.00,,,0.00,VWS V13.01,2015-06-02 17:43:00,
2015-06-02 11:48:00,76.0,66.3,29.73,North,360,0.0,0.0,72,0.00,,,0.00,VWS V13.01,2015-06-02 17:48:00,
2015-06-02 11:53:00,77.0,66.1,29.72,North,360,0.0,0.0,69,0.00,,,0.00,VWS V13.01,2015-06-02 17:53:00,
2015-06-02 11:58:00,76.0,66.3,29.72,NNE,22,0.0,0.0,72,0.00,,,0.00,VWS V13.01,2015-06-02 17:58:00,
2015-06-02 12:03:00,77.0,66.1,29.72,North,360,0.0,0.0,69,0.00,,,0.00,VWS V13.01,2015-06-02 18:03:00,
2015-06-02 12:08:00,77.0,67.3,29.72,NNW,337,0.0,0.0,72,0.00,,,0.00,VWS V13.01,2015-06-02 18:08:00,
2015-06-02 12:13:00,77.0,66.5,29.71,NNE,22,0.0,0.0,70,0.00,,,0.00,VWS V13.01,2015-06-02 18:13:00,
2015-06-02 12:18:00,78.0,66.2,29.71,North,360,0.0,0.0,67,0.00,,,0.00,VWS V13.01,2015-06-02 18:18:00,
2015-06-02 12:23:00,78.0,68.2,29.71,NNE,22,0.0,0.0,72,0.00,,,0.00,VWS V13.01,2015-06-02 18:23:00,
2015-06-02 12:28:00,78.0,67.0,29.71,NNW,337,0.0,0.0,69,0.00,,,0.00,VWS V13.01,2015-06-02 18:28:00,
2015-06-02 12:33:00,77.0,68.1,29.71,North,360,0.0,0.0,74,0.00,,,0.00,VWS V13.01,2015-06-02 18:33:00,
2015-06-02 12:38:00,77.0,67.3,29.71,North,360,0.0,0.0,72,0.00,,,0.00,VWS V13.01,2015-06-02 18:38:00,
2015-06-02 12:43:00,77.0,68.5,29.72,NE,45,0.0,0.0,75,0.00,,,0.00,VWS V13.01,2015-06-02 18:43:00,
2015-06-02 12:48:00,77.0,68.9,29.72,NNE,22,0.0,0.0,76,0.00,,,0.00,VWS V13.01,2015-06-02 18:48:00,
2015-06-02 12:53:00,77.0,67.3,29.72,North,360,0.0,0.0,72,0.00,,,0.00,VWS V13.01,2015-06-02 18:53:00,
2015-06-02 12:58:00,78.0,68.2,29.72,North,360,0.0,0.0,72,0.00,,,0.00,VWS V13.01,2015-06-02 18:58:00,
2015-06-02 13:03:00,77.0,68.1,29.71,North,360,0.0,0.0,74,0.00,,,0.00,VWS V13.01,2015-06-02 19:03:00,
2015-06-02 13:08:00,77.0,66.9,29.71,North,360,0.0,0.0,71,0.00,,,0.00,VWS V13.01,2015-06-02 19:08:00,
2015-06-02 13:13:00,78.0,68.2,29.71,NNE,22,0.0,0.0,72,0.00,,,0.00,VWS V13.01,2015-06-02 19:13:00,
2015-06-02 13:18:00,78.0,69.1,29.71,NNW,337,0.0,0.0,74,0.00,,,0.00,VWS V13.01,2015-06-02 19:18:00,
2015-06-02 13:23:00,77.0,68.5,29.71,NE,45,0.0,0.0,75,0.00,,,0.00,VWS V13.01,2015-06-02 19:23:00,
2015-06-02 13:28:00,77.0,68.1,29.71,North,360,0.0,0.0,74,0.00,,,0.00,VWS V13.01,2015-06-02 19:28:00,
2015-06-02 13:33:00,77.0,68.9,29.71,NNE,22,0.0,12.0,76,0.00,,,0.00,VWS V13.01,2015-06-02 19:33:00,
2015-06-02 13:38:00,77.0,68.1,29.71,North,360,7.0,14.0,74,0.00,,,0.00,VWS V13.01,2015-06-02 19:38:00,
2015-06-02 13:43:00,77.0,68.1,29.71,NNW,337,0.0,10.0,74,0.00,,,0.00,VWS V13.01,2015-06-02 19:43:00,
2015-06-02 13:48:00,77.0,69.6,29.71,North,360,0.0,0.0,78,0.00,,,0.00,VWS V13.01,2015-06-02 19:48:00,
2015-06-02 13:53:00,77.0,66.9,29.71,NNE,22,0.0,0.0,71,0.00,,,0.00,VWS V13.01,2015-06-02 19:53:00,
2015-06-02 13:58:00,77.0,67.7,29.71,NNE,22,12.0,13.0,73,0.00,,,0.00,VWS V13.01,2015-06-02 19:58:00,
2015-06-02 14:03:00,77.0,68.1,29.71,NE,45,0.0,13.0,74,0.00,,,0.00,VWS V13.01,2015-06-02 20:03:00,
2015-06-02 14:08:00,79.0,70.4,29.71,NNW,337,0.0,0.0,75,0.00,,,0.00,VWS V13.01,2015-06-02 20:08:00,
2015-06-02 14:13:00,78.0,69.4,29.70,NE,45,0.0,11.0,75,0.00,,,0.00,VWS V13.01,2015-06-02 20:13:00,
2015-06-02 14:18:00,79.0,70.0,29.70,North,360,0.0,7.0,74,0.00,,,0.00,VWS V13.01,2015-06-02 20:18:00,
2015-06-02 14:23:00,78.0,68.7,29.71,NNW,337,6.0,14.0,73,0.00,,,0.00,VWS V13.01,2015-06-02 20:23:00,
2015-06-02 14:28:00,78.0,67.8,29.71,NE,45,0.0,12.0,71,0.00,,,0.00,VWS V13.01,2015-06-02 20:28:00,
2015-06-02 14:33:00,79.0,68.8,29.70,NNE,22,0.0,0.0,71,0.00,,,0.00,VWS V13.01,2015-06-02 20:33:00,
2015-06-02 14:38:00,79.0,69.2,29.70,NNE,22,0.0,0.0,72,0.00,,,0.00,VWS V13.01,2015-06-02 20:38:00,
2015-06-02 14:43:00,79.0,69.6,29.70,NE,45,0.0,0.0,73,0.00,,,0.00,VWS V13.01,2015-06-02 20:43:00,
2015-06-02 14:48:00,79.0,68.8,29.70,NNE,22,0.0,0.0,71,0.00,,,0.00,VWS V13.01,2015-06-02 20:48:00,
2015-06-02 14:53:00,79.0,68.8,29.69,NNE,22,0.0,15.0,71,0.00,,,0.00,VWS V13.01,2015-06-02 20:53:00,
2015-06-02 14:58:00,79.0,69.2,29.69,NNE,22,0.0,10.0,72,0.00,,,0.00,VWS V13.01,2015-06-02 20:58:00,
2015-06-02 15:03:00,79.0,69.2,29.69,NNE,22,0.0,14.0,72,0.00,,,0.00,VWS V13.01,2015-06-02 21:03:00,
2015-06-02 15:08:00,78.0,68.7,29.69,NNE,22,9.0,16.0,73,0.00,,,0.00,VWS V13.01,2015-06-02 21:08:00,
2015-06-02 15:13:00,78.0,68.7,29.71,NE,45,0.0,12.0,73,0.00,,,0.00,VWS V13.01,2015-06-02 21:13:00,
2015-06-02 15:18:00,80.0,70.6,29.71,North,360,0.0,0.0,73,0.00,,,0.00,VWS V13.01,2015-06-02 21:18:00,
2015-06-02 15:23:00,78.0,67.0,29.70,NNE,22,0.0,0.0,69,0.00,,,0.00,VWS V13.01,2015-06-02 21:23:00,
2015-06-02 15:28:00,78.0,67.8,29.70,NE,45,0.0,15.0,71,0.00,,,0.00,VWS V13.01,2015-06-02 21:28:00,
2015-06-02 15:33:00,78.0,67.0,29.70,North,360,0.0,15.0,69,0.00,,,0.00,VWS V13.01,2015-06-02 21:33:00,
2015-06-02 15:38:00,78.0,68.2,29.70,NNE,22,7.0,12.0,72,0.00,,,0.00,VWS V13.01,2015-06-02 21:38:00,
2015-06-02 15:43:00,79.0,66.7,29.69,NNE,22,9.0,16.0,66,0.00,,,0.00,VWS V13.01,2015-06-02 21:43:00,
2015-06-02 15:48:00,78.0,66.6,29.69,NNE,22,7.0,13.0,68,0.00,,,0.00,VWS V13.01,2015-06-02 21:48:00,
2015-06-02 15:53:00,78.0,66.2,29.69,North,360,0.0,13.0,67,0.00,,,0.00,VWS V13.01,2015-06-02 21:53:00,
2015-06-02 16:03:00,77.0,66.9,29.70,NNE,22,10.0,12.0,71,0.00,,,0.00,VWS V13.01,2015-06-02 22:03:00,
2015-06-02 16:08:00,77.0,66.5,29.70,North,360,6.0,10.0,70,0.00,,,0.00,VWS V13.01,2015-06-02 22:08:00,
2015-06-02 16:13:00,77.0,67.3,29.69,NNE,22,10.0,16.0,72,0.00,,,0.00,VWS V13.01,2015-06-02 22:13:00,
2015-06-02 16:18:00,76.0,66.7,29.69,North,360,6.0,16.0,73,0.00,,,0.00,VWS V13.01,2015-06-02 22:18:00,
2015-06-02 16:23:00,76.0,66.3,29.70,North,360,8.0,16.0,72,0.00,,,0.00,VWS V13.01,2015-06-02 22:23:00,
2015-06-02 16:28:00,76.0,66.3,29.70,NNE,22,9.0,15.0,72,0.00,,,0.00,VWS V13.01,2015-06-02 22:28:00,
2015-06-02 16:33:00,76.0,66.7,29.71,North,360,9.0,17.0,73,0.00,,,0.00,VWS V13.01,2015-06-02 22:33:00,
2015-06-02 16:38:00,76.0,66.7,29.71,NNE,22,13.0,16.0,73,0.00,,,0.00,VWS V13.01,2015-06-02 22:38:00,
2015-06-02 16:43:00,75.0,65.0,29.71,North,360,8.0,14.0,71,0.00,,,0.00,VWS V13.01,2015-06-02 22:43:00,
2015-06-02 16:48:00,75.0,65.8,29.71,NNW,337,10.0,12.0,73,0.00,,,0.00,VWS V13.01,2015-06-02 22:48:00,
2015-06-02 16:53:00,74.0,66.3,29.72,NW,315,13.0,16.0,77,0.00,,,0.00,VWS V13.01,2015-06-02 22:53:00,
2015-06-02 16:58:00,74.0,66.3,29.72,NW,315,12.0,17.0,77,0.00,,,0.00,VWS V13.01,2015-06-02 22:58:00,
2015-06-02 17:03:00,74.0,64.8,29.73,NNW,337,13.0,17.0,73,0.00,,,0.00,VWS V13.01,2015-06-02 23:03:00,
2015-06-02 17:08:00,71.0,64.2,29.73,North,360,15.0,29.0,79,0.00,,,0.00,VWS V13.01,2015-06-02 23:08:00,
2015-06-02 17:13:00,71.0,63.4,29.75,North,360,10.0,20.0,77,0.00,,,0.00,VWS V13.01,2015-06-02 23:13:00,
2015-06-02 17:18:00,71.0,63.4,29.75,NNW,337,6.0,15.0,77,0.00,,,0.00,VWS V13.01,2015-06-02 23:18:00,
2015-06-02 17:23:00,71.0,63.8,29.77,NNW,337,5.0,7.0,78,0.00,,,0.00,VWS V13.01,2015-06-02 23:23:00,
2015-06-02 17:28:00,70.0,64.6,29.77,NNW,337,7.0,11.0,83,0.00,,,0.00,VWS V13.01,2015-06-02 23:28:00,
2015-06-02 17:33:00,70.0,64.3,29.77,NNW,337,7.0,11.0,82,0.00,,,0.00,VWS V13.01,2015-06-02 23:33:00,
2015-06-02 17:38:00,70.0,64.3,29.77,North,360,4.0,7.0,82,0.00,,,0.00,VWS V13.01,2015-06-02 23:38:00,
2015-06-02 17:43:00,70.0,63.2,29.77,North,360,7.0,7.0,79,0.00,,,0.00,VWS V13.01,2015-06-02 23:43:00,
2015-06-02 17:48:00,70.0,63.9,29.77,NNW,337,3.0,8.0,81,0.00,,,0.00,VWS V13.01,2015-06-02 23:48:00,
2015-06-02 17:53:00,70.0,64.3,29.78,NW,315,0.0,3.0,82,0.00,,,0.00,VWS V13.01,2015-06-02 23:53:00,
2015-06-02 17:58:00,70.0,65.3,29.78,SW,225,0.0,0.0,85,0.00,,,0.00,VWS V13.01,2015-06-02 23:58:00,
2015-06-02 18:03:00,69.0,64.6,29.79,WSW,247,0.0,0.0,86,0.00,,,0.00,VWS V13.01,2015-06-03 00:03:00,
2015-06-02 18:08:00,68.0,63.3,29.79,WNW,292,0.0,4.0,85,0.00,,,0.00,VWS V13.01,2015-06-03 00:08:00,